M I D A S
Marine Information and Data Acquisition System
Tripno 1207 of the Zeeleeuw from 2007-01-26 07:44:56 to 2007-01-26 15:02:39
Back to CruiseResearch ActivitiesStationsMapUnderway DataData graphs

EquipmentUnitsComment
TimeDGPSUTC
LatitudeDGPSDM.mWGS84
LongitudeDGPSDM.mWGS84
HeadingGyrodeg 
SOGDGPSknotsSpeed over ground
COGDGPSdegCourse over ground
DepthEcho soundermeters200 kHz
Missing or incorrect values are displayed as -999
Navigation data collected by the RV Zeeleeuw from 2007-01-26 07:45:56 to 2007-01-26 15:12:23
                                                                                    Next 1000 lines
Time Latitude Longitude Heading SOG COG Depth
2007-01-26 07:46:06 51°13.598 2°56.092 113.3 0.6 291 9
2007-01-26 07:46:11 51°13.599 2°56.091 113.2 0.8 292 -999
2007-01-26 07:46:16 51°13.599 2°56.088 113.3 1.1 294 -999
2007-01-26 07:46:21 51°13.6 2°56.085 113.8 1.5 292 -999
2007-01-26 07:46:26 51°13.601 2°56.081 114.2 1.9 295 9
2007-01-26 07:46:31 51°13.602 2°56.077 114.6 2.3 294 9.4
2007-01-26 07:46:36 51°13.604 2°56.071 114.9 2.7 294 -999
2007-01-26 07:46:41 51°13.606 2°56.065 115.6 3.1 294 -999
2007-01-26 07:46:46 51°13.608 2°56.058 115.9 3.5 295 -999
2007-01-26 07:46:51 51°13.61 2°56.05 116.1 3.9 294 -999
2007-01-26 07:46:56 51°13.613 2°56.042 116.1 4.1 294 -999
2007-01-26 07:47:01 51°13.615 2°56.033 116.2 4.4 294 -999
2007-01-26 07:47:06 51°13.618 2°56.024 116.3 4.5 294 -999
2007-01-26 07:47:11 51°13.62 2°56.015 116.4 4.6 294 -999
2007-01-26 07:47:16 51°13.623 2°56.005 116.6 4.6 294 -999
2007-01-26 07:47:21 51°13.626 2°55.996 116.8 4.6 294 -999
2007-01-26 07:47:26 51°13.628 2°55.986 117.1 4.6 294 -999
2007-01-26 07:47:31 51°13.631 2°55.977 117.5 4.6 294 -999
2007-01-26 07:47:36 51°13.633 2°55.968 117.9 4.7 294 -999
2007-01-26 07:47:41 51°13.636 2°55.958 118.6 4.7 295 -999
2007-01-26 07:47:46 51°13.639 2°55.949 119.2 4.7 295 -999
2007-01-26 07:47:51 51°13.642 2°55.94 119.9 4.7 296 4.7
2007-01-26 07:47:56 51°13.644 2°55.931 120.3 4.6 296 -999
2007-01-26 07:48:01 51°13.647 2°55.922 120.6 4.4 297 4.9
2007-01-26 07:48:06 51°13.65 2°55.913 120.8 4.3 297 4.7
2007-01-26 07:48:11 51°13.653 2°55.905 120.8 4.2 298 -999
2007-01-26 07:48:16 51°13.656 2°55.897 120.8 4.1 297 -999
2007-01-26 07:48:21 51°13.658 2°55.889 120.6 4.1 298 -999
2007-01-26 07:48:26 51°13.66 2°55.881 120.4 4 297 -999
2007-01-26 07:48:31 51°13.663 2°55.874 119.8 3.9 298 -999
2007-01-26 07:48:36 51°13.665 2°55.866 119.2 3.9 297 4.5
2007-01-26 07:48:41 51°13.668 2°55.859 118.7 3.7 297 4.6
2007-01-26 07:48:46 51°13.67 2°55.852 117.6 3.6 296 -999
2007-01-26 07:48:51 51°13.672 2°55.845 116.5 3.5 296 -999
2007-01-26 07:48:56 51°13.674 2°55.838 115.5 3.4 295 -999
2007-01-26 07:49:01 51°13.676 2°55.831 114.1 3.3 294 -999
2007-01-26 07:49:06 51°13.677 2°55.824 113.1 3.2 293 4.6
2007-01-26 07:49:11 51°13.679 2°55.818 112 3.2 292 4.6
2007-01-26 07:49:16 51°13.68 2°55.812 111 3.1 291 11.6
2007-01-26 07:49:21 51°13.682 2°55.806 109.9 3 291 11.6
2007-01-26 07:49:26 51°13.683 2°55.799 108.6 3 289 11.5
2007-01-26 07:49:31 51°13.685 2°55.794 107 2.9 289 11.4
2007-01-26 07:49:36 51°13.686 2°55.788 105.3 2.8 287 11.7
2007-01-26 07:49:41 51°13.687 2°55.782 103.7 2.7 286 11.5
2007-01-26 07:49:46 51°13.688 2°55.776 101.6 2.6 284 11.8
2007-01-26 07:49:51 51°13.689 2°55.771 100.3 2.6 283 12
2007-01-26 07:49:56 51°13.689 2°55.765 98.7 2.5 282 12.2
2007-01-26 07:50:01 51°13.69 2°55.76 97 2.4 279 12.8
2007-01-26 07:50:06 51°13.69 2°55.755 95.2 2.4 278 12.9
2007-01-26 07:50:11 51°13.691 2°55.75 93.5 2.3 277 13.3
2007-01-26 07:50:16 51°13.691 2°55.745 91.6 2.2 276 13.1
2007-01-26 07:50:21 51°13.691 2°55.74 90.6 2.1 274 13.6
2007-01-26 07:50:26 51°13.691 2°55.736 89.2 2 273 13.7
2007-01-26 07:50:31 51°13.692 2°55.732 87.7 1.8 272 13.7
2007-01-26 07:50:36 51°13.692 2°55.728 85.6 1.6 273 14
2007-01-26 07:50:41 51°13.692 2°55.725 84.2 1.4 272 13.6
2007-01-26 07:50:46 51°13.692 2°55.723 82.3 1.2 274 13.5
2007-01-26 07:50:51 51°13.692 2°55.721 80.2 0.8 277 13.4
2007-01-26 07:50:56 51°13.692 2°55.72 77.6 0.5 298 13.2
2007-01-26 07:51:01 51°13.693 2°55.72 74.1 0.3 339 13.1
2007-01-26 07:51:06 51°13.693 2°55.72 69.9 0.5 12 13.1
2007-01-26 07:51:11 51°13.694 2°55.721 65.2 0.7 30 13.5
2007-01-26 07:51:16 51°13.695 2°55.722 60 0.9 30 13.6
2007-01-26 07:51:21 51°13.697 2°55.723 54.6 1.2 32 14.1
2007-01-26 07:51:26 51°13.699 2°55.724 49.1 1.4 29 15
2007-01-26 07:51:31 51°13.701 2°55.726 43.3 1.7 25 15.3
2007-01-26 07:51:36 51°13.704 2°55.727 37.3 1.9 20 14.6
2007-01-26 07:51:41 51°13.707 2°55.728 31.2 2.2 15 14.1
2007-01-26 07:51:46 51°13.71 2°55.729 24.7 2.4 9 13.8
2007-01-26 07:51:51 51°13.713 2°55.73 18.4 2.6 3 13.4
2007-01-26 07:51:56 51°13.717 2°55.729 11.9 2.8 358 13.1
2007-01-26 07:52:01 51°13.721 2°55.728 5.6 3 352 13.2
2007-01-26 07:52:06 51°13.726 2°55.727 359.4 3.1 346 13
2007-01-26 07:52:11 51°13.73 2°55.725 353.2 3.3 342 12.7
2007-01-26 07:52:16 51°13.735 2°55.722 346.8 3.6 336 12.4
2007-01-26 07:52:21 51°13.74 2°55.718 341.1 3.8 335 12.1
2007-01-26 07:52:26 51°13.745 2°55.714 337.8 4 333 12
2007-01-26 07:52:31 51°13.75 2°55.71 336.1 4.3 332 11.7
2007-01-26 07:52:36 51°13.755 2°55.705 335.4 4.5 332 11.7
2007-01-26 07:52:41 51°13.761 2°55.7 335.2 4.7 331 11.6
2007-01-26 07:52:46 51°13.767 2°55.695 335 4.9 331 11.7
2007-01-26 07:52:51 51°13.773 2°55.689 335 5.1 331 11.4
2007-01-26 07:52:56 51°13.779 2°55.684 335.2 5.2 331 11.1
2007-01-26 07:53:01 51°13.786 2°55.678 335.4 5.3 332 11
2007-01-26 07:53:06 51°13.793 2°55.672 335.8 5.5 332 11
2007-01-26 07:53:11 51°13.8 2°55.667 336.4 5.6 333 11.2
2007-01-26 07:53:16 51°13.807 2°55.661 336.7 5.8 333 11.5
2007-01-26 07:53:21 51°13.814 2°55.655 337 5.8 334 11.6
2007-01-26 07:53:26 51°13.821 2°55.649 337.5 5.9 334 11.8
2007-01-26 07:53:31 51°13.829 2°55.644 337.8 6.1 334 11.6
2007-01-26 07:53:36 51°13.837 2°55.638 338.3 6.4 335 11.8
2007-01-26 07:53:41 51°13.845 2°55.631 338.8 6.6 335 12.3
2007-01-26 07:53:46 51°13.853 2°55.625 339 6.7 336 11.5
2007-01-26 07:53:51 51°13.862 2°55.619 339.3 6.8 335 11
2007-01-26 07:53:56 51°13.871 2°55.613 339.4 6.9 335 11.4
2007-01-26 07:54:01 51°13.88 2°55.606 339.4 7.1 334 11.8
2007-01-26 07:54:06 51°13.889 2°55.599 338.8 7.2 335 12.1
2007-01-26 07:54:11 51°13.898 2°55.592 338.7 7.3 334 12.2
2007-01-26 07:54:16 51°13.907 2°55.585 338.6 7.4 335 12.2
2007-01-26 07:54:21 51°13.917 2°55.578 338.6 7.5 334 12.2
2007-01-26 07:54:26 51°13.926 2°55.571 338.8 7.5 335 12.2
2007-01-26 07:54:31 51°13.936 2°55.563 338.8 7.6 334 12.2
2007-01-26 07:54:36 51°13.945 2°55.556 338.8 7.6 335 12.1
2007-01-26 07:54:41 51°13.955 2°55.549 339.2 7.7 334 12.1
2007-01-26 07:54:46 51°13.965 2°55.542 339.3 7.7 335 12.1
2007-01-26 07:54:51 51°13.974 2°55.535 339.2 7.7 335 12.1
2007-01-26 07:54:56 51°13.984 2°55.527 339.6 7.7 335 12.1
2007-01-26 07:55:01 51°13.994 2°55.52 340.1 7.7 336 12.1
2007-01-26 07:55:06 51°14.003 2°55.513 340.4 7.7 336 12.1
2007-01-26 07:55:11 51°14.013 2°55.506 340.3 7.8 336 12
2007-01-26 07:55:16 51°14.023 2°55.499 340.2 7.8 336 12
2007-01-26 07:55:21 51°14.033 2°55.493 340.2 7.8 336 12
2007-01-26 07:55:26 51°14.043 2°55.486 340.4 7.8 336 12
2007-01-26 07:55:31 51°14.053 2°55.478 340.4 7.8 336 12
2007-01-26 07:55:36 51°14.063 2°55.471 340.3 7.8 336 12
2007-01-26 07:55:41 51°14.073 2°55.464 340.1 7.8 335 12
2007-01-26 07:55:46 51°14.083 2°55.457 339.7 7.9 336 12
2007-01-26 07:55:51 51°14.093 2°55.449 339.6 7.9 335 12
2007-01-26 07:55:56 51°14.103 2°55.442 339 7.9 335 12
2007-01-26 07:56:01 51°14.112 2°55.434 338.6 7.9 333 12
2007-01-26 07:56:06 51°14.122 2°55.426 337.9 7.9 333 12
2007-01-26 07:56:11 51°14.132 2°55.418 337.2 7.9 332 12
2007-01-26 07:56:16 51°14.141 2°55.409 336.4 7.9 331 12
2007-01-26 07:56:21 51°14.151 2°55.401 335.5 7.9 330 12
2007-01-26 07:56:26 51°14.16 2°55.392 334.6 7.9 330 12
2007-01-26 07:56:31 51°14.17 2°55.382 333.5 7.9 327 12
2007-01-26 07:56:36 51°14.179 2°55.373 332.1 7.9 327 12
2007-01-26 07:56:41 51°14.188 2°55.362 330.9 7.9 325 12
2007-01-26 07:56:46 51°14.197 2°55.352 329.5 7.9 323 12
2007-01-26 07:56:51 51°14.205 2°55.341 327.8 7.9 322 12
2007-01-26 07:56:56 51°14.214 2°55.33 326.4 7.9 321 12
2007-01-26 07:57:01 51°14.222 2°55.319 325 7.9 320 12
2007-01-26 07:57:06 51°14.23 2°55.307 323.2 7.9 317 11.9
2007-01-26 07:57:11 51°14.238 2°55.296 321.4 7.9 317 12.3
2007-01-26 07:57:16 51°14.246 2°55.283 320.1 8.1 316 11.8
2007-01-26 07:57:21 51°14.254 2°55.271 319.3 8.2 316 11.9
2007-01-26 07:57:26 51°14.262 2°55.257 318.7 8.3 315 12
2007-01-26 07:57:31 51°14.271 2°55.244 318.2 8.5 314 12.1
2007-01-26 07:57:36 51°14.279 2°55.23 317.9 8.5 314 12.1
2007-01-26 07:57:41 51°14.287 2°55.217 317.8 8.6 313 12.1
2007-01-26 07:57:46 51°14.295 2°55.202 317 8.8 313 12.2
2007-01-26 07:57:51 51°14.304 2°55.188 316.4 8.9 313 12.3
2007-01-26 07:57:56 51°14.312 2°55.173 316.1 9.1 313 12.2
2007-01-26 07:58:01 51°14.321 2°55.158 316.5 9.2 314 12.1
2007-01-26 07:58:06 51°14.33 2°55.144 317.5 9.2 314 12.1
2007-01-26 07:58:11 51°14.339 2°55.129 317.8 9.3 315 12.1
2007-01-26 07:58:16 51°14.349 2°55.115 318.2 9.3 317 11.8
2007-01-26 07:58:21 51°14.358 2°55.102 319.5 8.9 317 11.6
2007-01-26 07:58:26 51°14.366 2°55.09 320.6 8.4 318 11.6
2007-01-26 07:58:31 51°14.374 2°55.078 321.1 8 318 11.7
2007-01-26 07:58:36 51°14.382 2°55.067 321.4 7.5 320 11.8
2007-01-26 07:58:41 51°14.39 2°55.057 321.8 7.3 321 11.9
2007-01-26 07:58:46 51°14.398 2°55.048 322.5 7 322 11.8
2007-01-26 07:58:51 51°14.406 2°55.038 323.4 6.9 323 11.9
2007-01-26 07:58:56 51°14.413 2°55.029 324.3 7 324 12
2007-01-26 07:59:01 51°14.422 2°55.021 325.1 7.1 327 11.9
2007-01-26 07:59:06 51°14.43 2°55.013 327.7 7.1 330 11.8
2007-01-26 07:59:11 51°14.439 2°55.006 331.1 7.4 333 11.6
2007-01-26 07:59:16 51°14.449 2°54.998 334.4 7.9 335 11.3
2007-01-26 07:59:21 51°14.46 2°54.991 337 8.2 337 11.5
2007-01-26 07:59:26 51°14.471 2°54.984 338.8 8.6 338 11.4
2007-01-26 07:59:31 51°14.482 2°54.977 340.4 8.9 340 11.2
2007-01-26 07:59:36 51°14.494 2°54.971 341.8 9 341 11
2007-01-26 07:59:41 51°14.506 2°54.965 343.3 9.2 343 11.1
2007-01-26 07:59:46 51°14.519 2°54.959 344.7 9.3 344 11
2007-01-26 07:59:51 51°14.532 2°54.954 346.5 9.5 345 10.9
2007-01-26 07:59:56 51°14.545 2°54.948 347.5 9.6 344 10.8
2007-01-26 08:00:01 51°14.558 2°54.942 347 9.8 344 10.7
2007-01-26 08:00:06 51°14.57 2°54.936 345.9 9.8 343 10.6
2007-01-26 08:00:11 51°14.583 2°54.929 344.3 9.7 341 10.7
2007-01-26 08:00:16 51°14.596 2°54.922 342.9 9.8 341 10.7
2007-01-26 08:00:21 51°14.609 2°54.915 342.4 10 341 10.6
2007-01-26 08:00:26 51°14.622 2°54.908 342.8 10.2 341 10.7
2007-01-26 08:00:31 51°14.636 2°54.9 342.7 10.3 342 10.6
2007-01-26 08:00:36 51°14.65 2°54.894 342.1 10.5 343 10.5
2007-01-26 08:00:41 51°14.664 2°54.887 342.3 10.7 344 10.6
2007-01-26 08:00:46 51°14.679 2°54.881 343.3 10.7 344 10.3
2007-01-26 08:00:51 51°14.693 2°54.873 343.1 10.8 341 10.5
2007-01-26 08:00:56 51°14.707 2°54.864 341.4 10.8 339 10.5
2007-01-26 08:01:01 51°14.721 2°54.855 339.4 10.9 336 10.4
2007-01-26 08:01:06 51°14.735 2°54.844 337.5 11 335 10.4
2007-01-26 08:01:11 51°14.748 2°54.833 334.8 11 333 10.4
2007-01-26 08:01:16 51°14.762 2°54.821 332.4 11.1 331 10.7
2007-01-26 08:01:21 51°14.775 2°54.809 330.9 11.3 331 10.5
2007-01-26 08:01:26 51°14.789 2°54.797 331.2 11.5 330 10.5
2007-01-26 08:01:31 51°14.803 2°54.783 330.7 11.7 329 10.5
2007-01-26 08:01:36 51°14.817 2°54.77 330.5 11.9 330 10.5
2007-01-26 08:01:41 51°14.832 2°54.757 330.4 12.1 330 10.5
2007-01-26 08:01:46 51°14.846 2°54.743 330.4 12.1 329 10.5
2007-01-26 08:01:51 51°14.861 2°54.729 330.6 12.2 329 10.5
2007-01-26 08:01:56 51°14.875 2°54.715 330.7 12.3 329 10.5
2007-01-26 08:02:01 51°14.89 2°54.701 330.6 12.4 329 10.4
2007-01-26 08:02:06 51°14.905 2°54.687 330.6 12.6 329 10.4
2007-01-26 08:02:11 51°14.92 2°54.672 330.6 12.7 329 10.7
2007-01-26 08:02:16 51°14.935 2°54.658 330.9 12.8 330 10.5
2007-01-26 08:02:21 51°14.951 2°54.643 331.2 13 329 10.4
2007-01-26 08:02:26 51°14.966 2°54.629 331.3 13 330 10
2007-01-26 08:02:31 51°14.982 2°54.614 331.4 13.1 330 10.6
2007-01-26 08:02:36 51°14.998 2°54.6 331.6 13.1 330 10
2007-01-26 08:02:41 51°15.013 2°54.585 331.4 13 329 10.1
2007-01-26 08:02:46 51°15.029 2°54.57 330.9 13 329 9.8
2007-01-26 08:02:51 51°15.044 2°54.554 330.7 13.1 327 9.8
2007-01-26 08:02:56 51°15.059 2°54.538 330.1 13.1 327 9.7
2007-01-26 08:03:01 51°15.074 2°54.522 329.5 13.2 327 9.7
2007-01-26 08:03:06 51°15.09 2°54.507 328.8 13.1 327 9.7
2007-01-26 08:03:11 51°15.105 2°54.491 328.9 13.1 327 9.7
2007-01-26 08:03:16 51°15.12 2°54.474 328.5 13.1 326 9.7
2007-01-26 08:03:21 51°15.135 2°54.458 328.1 13.1 325 9.7
2007-01-26 08:03:26 51°15.15 2°54.441 327.8 13.2 325 9.7
2007-01-26 08:03:31 51°15.164 2°54.424 327.6 13.1 324 9.7
2007-01-26 08:03:36 51°15.179 2°54.407 327.3 13.2 325 9.9
2007-01-26 08:03:41 51°15.194 2°54.39 327.3 13.2 325 10
2007-01-26 08:03:46 51°15.21 2°54.374 327.7 13.2 327 10
2007-01-26 08:03:51 51°15.225 2°54.358 328.8 13.2 326 10.1
2007-01-26 08:03:56 51°15.24 2°54.342 328.9 13.1 326 10.1
2007-01-26 08:04:01 51°15.255 2°54.325 328.8 13.2 326 9.9
2007-01-26 08:04:06 51°15.27 2°54.309 329 13.2 326 10.2
2007-01-26 08:04:11 51°15.285 2°54.293 328.8 13.3 325 10.4
2007-01-26 08:04:16 51°15.3 2°54.276 328.7 13.2 326 10.6
2007-01-26 08:04:21 51°15.315 2°54.26 328.4 13.2 325 10.5
2007-01-26 08:04:26 51°15.33 2°54.243 328.4 13.2 325 10.4
2007-01-26 08:04:31 51°15.346 2°54.226 328.3 13.3 325 10.6
2007-01-26 08:04:36 51°15.361 2°54.21 328.4 13.3 326 10.5
2007-01-26 08:04:41 51°15.376 2°54.194 328.3 13.3 327 10.5
2007-01-26 08:04:46 51°15.392 2°54.178 328.9 13.3 326 10.5
2007-01-26 08:04:51 51°15.407 2°54.161 329.1 13.2 326 10.6
2007-01-26 08:04:56 51°15.422 2°54.145 329.3 13.2 326 10.6
2007-01-26 08:05:01 51°15.437 2°54.128 329 13.3 326 10.8
2007-01-26 08:05:06 51°15.452 2°54.112 328.7 13.2 326 10.8
2007-01-26 08:05:11 51°15.468 2°54.096 328.7 13.2 327 11.1
2007-01-26 08:05:16 51°15.483 2°54.08 328.9 13.2 326 11
2007-01-26 08:05:21 51°15.498 2°54.064 328.8 13.1 326 11
2007-01-26 08:05:26 51°15.513 2°54.047 328.7 13.1 325 11.2
2007-01-26 08:05:31 51°15.528 2°54.031 328.6 13.1 325 11.4
2007-01-26 08:05:36 51°15.543 2°54.014 328.5 13.2 324 11.3
2007-01-26 08:05:41 51°15.558 2°53.998 328 13.2 326 11.2
2007-01-26 08:05:46 51°15.573 2°53.981 328.2 13.2 326 11.4
2007-01-26 08:05:51 51°15.588 2°53.965 328.7 13.3 327 11.6
2007-01-26 08:05:56 51°15.604 2°53.949 329.2 13.3 327 11.5
2007-01-26 08:06:01 51°15.619 2°53.933 329.5 13.2 327 11.5
2007-01-26 08:06:06 51°15.635 2°53.917 329.4 13.2 327 11.6
2007-01-26 08:06:11 51°15.65 2°53.901 328.7 13.3 328 11.6
2007-01-26 08:06:16 51°15.665 2°53.885 329.3 13.3 326 11.6
2007-01-26 08:06:21 51°15.681 2°53.869 329.3 13.3 327 11.7
2007-01-26 08:06:26 51°15.696 2°53.853 329 13.3 326 11.7
2007-01-26 08:06:31 51°15.712 2°53.836 328.7 13.3 327 11.9
2007-01-26 08:06:36 51°15.727 2°53.821 328.6 13.3 327 11.8
2007-01-26 08:06:41 51°15.743 2°53.805 329.4 13.2 327 11.9
2007-01-26 08:06:46 51°15.758 2°53.789 329.5 13.3 328 12
2007-01-26 08:06:51 51°15.774 2°53.774 329.3 13.3 328 11.9
2007-01-26 08:06:56 51°15.789 2°53.758 329.6 13.3 328 11.9
2007-01-26 08:07:01 51°15.805 2°53.743 329.5 13.3 328 12
2007-01-26 08:07:06 51°15.821 2°53.727 329.6 13.2 328 12
2007-01-26 08:07:11 51°15.836 2°53.711 329.5 13.2 327 12.1
2007-01-26 08:07:16 51°15.852 2°53.694 329.2 13.2 326 12.2
2007-01-26 08:07:21 51°15.867 2°53.678 328.8 13.3 326 12.1
2007-01-26 08:07:26 51°15.882 2°53.662 328.6 13.3 326 12.2
2007-01-26 08:07:31 51°15.897 2°53.646 328.1 13.2 326 12.3
2007-01-26 08:07:36 51°15.913 2°53.629 328.6 13.3 326 12.3
2007-01-26 08:07:41 51°15.928 2°53.613 328.7 13.2 326 12.2
2007-01-26 08:07:46 51°15.943 2°53.597 328.8 13.2 327 12.4
2007-01-26 08:07:51 51°15.959 2°53.582 328.8 13.3 328 12.5
2007-01-26 08:07:56 51°15.974 2°53.566 329.5 13.2 327 12.4
2007-01-26 08:08:01 51°15.99 2°53.55 329.5 13.2 328 12.6
2007-01-26 08:08:06 51°16.005 2°53.534 329.5 13.2 327 12.6
2007-01-26 08:08:11 51°16.021 2°53.518 329.4 13.2 327 12.7
2007-01-26 08:08:16 51°16.036 2°53.501 328.7 13.2 326 12.7
2007-01-26 08:08:21 51°16.051 2°53.485 328.8 13.2 326 12.6
2007-01-26 08:08:26 51°16.066 2°53.468 328.6 13.3 325 12.7
2007-01-26 08:08:31 51°16.081 2°53.452 328.2 13.2 326 12.7
2007-01-26 08:08:36 51°16.097 2°53.436 328.7 13.3 327 13
2007-01-26 08:08:41 51°16.112 2°53.42 328.9 13.2 328 12.8
2007-01-26 08:08:46 51°16.128 2°53.404 329.4 13.3 328 12.9
2007-01-26 08:08:51 51°16.143 2°53.389 329.6 13.3 328 12.9
2007-01-26 08:08:56 51°16.159 2°53.373 329.4 13.2 328 12.9
2007-01-26 08:09:01 51°16.174 2°53.358 329.8 13.3 328 13
2007-01-26 08:09:06 51°16.19 2°53.342 330.5 13.2 329 12.9
2007-01-26 08:09:11 51°16.206 2°53.328 331.3 13.2 331 12.8
2007-01-26 08:09:16 51°16.223 2°53.314 332.3 13.3 331 13
2007-01-26 08:09:21 51°16.239 2°53.3 333.2 13.3 330 12.9
2007-01-26 08:09:26 51°16.255 2°53.285 333.1 13.2 331 13
2007-01-26 08:09:31 51°16.271 2°53.271 332.7 13.3 330 13.3
2007-01-26 08:09:36 51°16.287 2°53.257 332.6 13.3 332 12.9
2007-01-26 08:09:41 51°16.303 2°53.243 333.7 13.3 330 13
2007-01-26 08:09:46 51°16.319 2°53.229 333.1 13.4 332 13
2007-01-26 08:09:51 51°16.335 2°53.215 333.6 13.3 332 12.9
2007-01-26 08:09:56 51°16.352 2°53.2 333.7 13.4 331 13.1
2007-01-26 08:10:01 51°16.368 2°53.186 333.3 13.4 331 13
2007-01-26 08:10:06 51°16.384 2°53.172 333.1 13.3 331 13
2007-01-26 08:10:11 51°16.4 2°53.158 333.3 13.3 331 13.1
2007-01-26 08:10:16 51°16.416 2°53.143 333.7 13.4 330 13.3
2007-01-26 08:10:21 51°16.432 2°53.129 333.5 13.4 331 13.2
2007-01-26 08:10:26 51°16.449 2°53.115 333.5 13.4 332 13.2
2007-01-26 08:10:31 51°16.465 2°53.101 333.5 13.3 332 13
2007-01-26 08:10:36 51°16.481 2°53.087 334 13.3 331 13.1
2007-01-26 08:10:41 51°16.498 2°53.073 333.8 13.3 331 12.8
2007-01-26 08:10:46 51°16.514 2°53.058 333.8 13.4 331 13
2007-01-26 08:10:51 51°16.53 2°53.044 333.5 13.3 332 12.7
2007-01-26 08:10:56 51°16.547 2°53.031 333.2 13.3 332 12.8
2007-01-26 08:11:01 51°16.563 2°53.017 333.6 13.3 332 12.9
2007-01-26 08:11:06 51°16.579 2°53.002 333.8 13.4 331 12.7
2007-01-26 08:11:11 51°16.596 2°52.989 333.3 13.4 332 12.7
2007-01-26 08:11:16 51°16.612 2°52.975 333.6 13.3 333 12.6
2007-01-26 08:11:21 51°16.629 2°52.962 334.1 13.4 333 12.5
2007-01-26 08:11:26 51°16.645 2°52.948 334.4 13.3 331 12.4
2007-01-26 08:11:31 51°16.661 2°52.934 333.7 13.3 332 12.7
2007-01-26 08:11:36 51°16.677 2°52.92 333.3 13.3 332 12.5
2007-01-26 08:11:41 51°16.694 2°52.907 333.4 13.3 333 12.3
2007-01-26 08:11:46 51°16.71 2°52.893 333.7 13.3 333 12.5
2007-01-26 08:11:51 51°16.726 2°52.88 333.4 13.3 332 12.1
2007-01-26 08:11:56 51°16.742 2°52.866 333.5 13.3 331 11.7
2007-01-26 08:12:01 51°16.758 2°52.851 333.2 13.3 329 11.6
2007-01-26 08:12:06 51°16.774 2°52.836 332.7 13.3 330 11.1
2007-01-26 08:12:11 51°16.79 2°52.821 331.9 13.2 331 10.9
2007-01-26 08:12:16 51°16.806 2°52.807 332.5 13.1 331 10.5
2007-01-26 08:12:21 51°16.821 2°52.793 332.8 13.1 330 10.7
2007-01-26 08:12:26 51°16.837 2°52.778 332.7 13.2 331 10.5
2007-01-26 08:12:31 51°16.854 2°52.764 332.6 13.3 330 10.4
2007-01-26 08:12:36 51°16.869 2°52.75 332.8 13.3 331 10.4
2007-01-26 08:12:41 51°16.885 2°52.735 333.1 13.2 331 10.2
2007-01-26 08:12:46 51°16.902 2°52.721 333 13.3 331 10.7
2007-01-26 08:12:51 51°16.917 2°52.706 333.5 13.3 330 10.5
2007-01-26 08:12:56 51°16.934 2°52.692 333 13.4 331 10.5
2007-01-26 08:13:01 51°16.95 2°52.677 333.7 13.4 330 10.7
2007-01-26 08:13:06 51°16.966 2°52.662 333.1 13.4 330 10.8
2007-01-26 08:13:11 51°16.982 2°52.647 333.4 13.5 329 10.8
2007-01-26 08:13:16 51°16.998 2°52.633 332.6 13.4 331 10.8
2007-01-26 08:13:21 51°17.014 2°52.619 333 13.4 331 11.2
2007-01-26 08:13:26 51°17.03 2°52.605 333.6 13.4 332 11.2
2007-01-26 08:13:31 51°17.047 2°52.59 334 13.3 331 10.8
2007-01-26 08:13:36 51°17.063 2°52.576 333.5 13.3 332 10.8
2007-01-26 08:13:41 51°17.079 2°52.563 333.5 13.3 332 10.6
2007-01-26 08:13:46 51°17.096 2°52.549 333.7 13.4 332 10.7
2007-01-26 08:13:51 51°17.112 2°52.535 334 13.4 331 10.5
2007-01-26 08:13:56 51°17.128 2°52.52 333.7 13.3 331 10.8
2007-01-26 08:14:01 51°17.144 2°52.506 333.4 13.4 331 10.7
2007-01-26 08:14:06 51°17.16 2°52.491 333.2 13.3 330 11.1
2007-01-26 08:14:11 51°17.177 2°52.478 332.9 13.4 332 11
2007-01-26 08:14:16 51°17.193 2°52.463 333.2 13.4 331 11.1
2007-01-26 08:14:21 51°17.21 2°52.451 332.8 13.5 337 11
2007-01-26 08:14:26 51°17.228 2°52.44 336.4 13.6 340 11
2007-01-26 08:14:31 51°17.246 2°52.432 341.3 13.7 344 10.9
2007-01-26 08:14:36 51°17.264 2°52.424 345.1 13.7 346 11.2
2007-01-26 08:14:41 51°17.283 2°52.419 347.9 13.8 348 11.2
2007-01-26 08:14:46 51°17.302 2°52.413 349.7 13.7 351 11.3
2007-01-26 08:14:51 51°17.321 2°52.408 351.7 13.8 350 11.5
2007-01-26 08:14:56 51°17.34 2°52.403 352.6 13.8 350 11.3
2007-01-26 08:15:01 51°17.358 2°52.398 353.1 13.7 351 11.3
2007-01-26 08:15:06 51°17.377 2°52.393 353.4 13.7 352 11.7
2007-01-26 08:15:11 51°17.396 2°52.39 354.4 13.7 353 11.2
2007-01-26 08:15:16 51°17.415 2°52.386 355.9 13.7 354 11.4
2007-01-26 08:15:21 51°17.434 2°52.384 356.7 13.9 354 11.2
2007-01-26 08:15:26 51°17.454 2°52.381 357.2 13.8 356 11.2
2007-01-26 08:15:31 51°17.473 2°52.378 358.5 13.8 354 11.3
2007-01-26 08:15:36 51°17.492 2°52.376 358.6 13.8 356 11.5
2007-01-26 08:15:41 51°17.511 2°52.374 358.6 13.8 356 11.3
2007-01-26 08:15:46 51°17.53 2°52.372 359.2 13.9 356 11.3
2007-01-26 08:15:51 51°17.55 2°52.369 359.4 13.9 355 11.5
2007-01-26 08:15:56 51°17.569 2°52.368 359.2 14 357 11.3
2007-01-26 08:16:01 51°17.588 2°52.366 0.1 14 358 11.4
2007-01-26 08:16:06 51°17.608 2°52.364 1.1 14.1 356 11.5
2007-01-26 08:16:11 51°17.627 2°52.362 0.1 14.1 357 11.3
2007-01-26 08:16:16 51°17.647 2°52.362 0.1 14.1 359 11.5
2007-01-26 08:16:21 51°17.666 2°52.359 1.9 14 354 11.4
2007-01-26 08:16:26 51°17.686 2°52.358 359.8 14 359 11.4
2007-01-26 08:16:31 51°17.705 2°52.356 1 14 356 11.4
2007-01-26 08:16:36 51°17.724 2°52.356 0.7 14 359 11.4
2007-01-26 08:16:41 51°17.743 2°52.354 1.2 13.9 358 11.5
2007-01-26 08:16:46 51°17.763 2°52.353 1.9 14 358 11.6
2007-01-26 08:16:51 51°17.782 2°52.352 0.9 14 358 11.2
2007-01-26 08:16:56 51°17.802 2°52.351 1.2 14 358 11.4
2007-01-26 08:17:01 51°17.821 2°52.35 1.7 14 357 11.4
2007-01-26 08:17:06 51°17.84 2°52.349 1.4 14 359 11.5
2007-01-26 08:17:11 51°17.859 2°52.346 1.7 13.9 355 11.3
2007-01-26 08:17:16 51°17.879 2°52.346 0.3 14 358 11.5
2007-01-26 08:17:21 51°17.898 2°52.343 0.7 14 355 11.5
2007-01-26 08:17:26 51°17.918 2°52.343 -999 14 359 11.3
2007-01-26 08:17:31 51°17.937 2°52.339 1.2 14 354 11.6
2007-01-26 08:17:36 51°17.956 2°52.34 359.3 14 -999 11.5
2007-01-26 08:17:41 51°17.976 2°52.337 1.3 14 355 11.3
2007-01-26 08:17:46 51°17.995 2°52.336 -999 14 358 11.4
2007-01-26 08:17:51 51°18.014 2°52.333 0.1 14 356 11.3
2007-01-26 08:17:56 51°18.034 2°52.332 0.6 14.2 357 11.5
2007-01-26 08:18:01 51°18.054 2°52.33 0.6 14.2 356 11.7
2007-01-26 08:18:06 51°18.073 2°52.328 0.7 14 357 11.7
2007-01-26 08:18:11 51°18.093 2°52.326 0.7 14.1 356 11.8
2007-01-26 08:18:16 51°18.112 2°52.325 0.6 14.1 357 11.7
2007-01-26 08:18:21 51°18.131 2°52.323 359.9 14 358 11.7
2007-01-26 08:18:26 51°18.151 2°52.325 0.6 14 3 11.7
2007-01-26 08:18:31 51°18.171 2°52.329 4.5 14.1 7 11.8
2007-01-26 08:18:36 51°18.19 2°52.332 8.8 14 8 11.8
2007-01-26 08:18:41 51°18.208 2°52.341 11.2 14 16 11.9
2007-01-26 08:18:46 51°18.227 2°52.351 16.8 13.9 20 11.8
2007-01-26 08:18:51 51°18.244 2°52.364 22.5 14 25 11.8
2007-01-26 08:18:56 51°18.261 2°52.379 27.8 14 27 11.7
2007-01-26 08:19:01 51°18.278 2°52.395 30.9 13.9 32 11.8
2007-01-26 08:19:06 51°18.294 2°52.411 35.8 14 30 12
2007-01-26 08:19:11 51°18.31 2°52.428 35.8 14 36 11.9
2007-01-26 08:19:16 51°18.326 2°52.447 38 14 37 11.9
2007-01-26 08:19:21 51°18.341 2°52.467 40.5 14.1 40 12.1
2007-01-26 08:19:26 51°18.354 2°52.49 43.3 14 48 12.2
2007-01-26 08:19:31 51°18.368 2°52.512 50.2 13.9 46 12.1
2007-01-26 08:19:36 51°18.379 2°52.536 52.1 13.8 52 12.2
2007-01-26 08:19:41 51°18.39 2°52.561 55.8 13.9 55 12.2
2007-01-26 08:19:46 51°18.4 2°52.588 59.5 13.8 60 12
2007-01-26 08:19:51 51°18.408 2°52.616 64.5 14.1 65 12.2
2007-01-26 08:19:56 51°18.417 2°52.644 69.2 14 62 12.2
2007-01-26 08:20:01 51°18.423 2°52.672 69.6 13.7 71 12.4
2007-01-26 08:20:06 51°18.43 2°52.7 74 13.8 67 12.3
2007-01-26 08:20:11 51°18.437 2°52.73 75.1 14 70 12.2
2007-01-26 08:20:16 51°18.444 2°52.758 75.3 13.9 69 12.3
2007-01-26 08:20:21 51°18.449 2°52.788 75.8 14 74 12.5
2007-01-26 08:20:26 51°18.457 2°52.817 77.6 14 66 12.4
2007-01-26 08:20:31 51°18.461 2°52.846 75.1 13.7 78 12.3
2007-01-26 08:20:36 51°18.467 2°52.876 79.6 14 72 12.3
2007-01-26 08:20:41 51°18.472 2°52.906 80 14.1 75 12.3
2007-01-26 08:20:46 51°18.478 2°52.935 79.4 14 72 12.2
2007-01-26 08:20:51 51°18.483 2°52.965 79 14 75 12.4
2007-01-26 08:20:56 51°18.489 2°52.995 79.8 14.1 73 12.3
2007-01-26 08:21:01 51°18.495 2°53.026 79.9 14.3 74 12.2
2007-01-26 08:21:06 51°18.5 2°53.056 79.7 14.3 75 12.3
2007-01-26 08:21:11 51°18.504 2°53.087 81.4 14.3 75 12.2
2007-01-26 08:21:16 51°18.509 2°53.118 81.9 14.2 77 12.3
2007-01-26 08:21:21 51°18.515 2°53.148 81.2 14.2 73 12.2
2007-01-26 08:21:26 51°18.52 2°53.178 80.5 14.3 76 12.1
2007-01-26 08:21:31 51°18.523 2°53.209 80.6 14.2 80 12.1
2007-01-26 08:21:36 51°18.528 2°53.24 84.2 14.1 77 12
2007-01-26 08:21:41 51°18.533 2°53.27 83.9 14.1 75 12.2
2007-01-26 08:21:46 51°18.538 2°53.3 82.9 14.2 73 12.2
2007-01-26 08:21:51 51°18.546 2°53.33 80 14.4 70 12.2
2007-01-26 08:21:56 51°18.553 2°53.359 76.4 14.1 69 12.1
2007-01-26 08:22:01 51°18.56 2°53.388 74.7 13.9 70 12.1
2007-01-26 08:22:06 51°18.567 2°53.416 75.1 13.9 69 12.1
2007-01-26 08:22:11 51°18.573 2°53.446 75.1 14.2 72 12.1
2007-01-26 08:22:16 51°18.581 2°53.475 76.9 14.4 65 12.1
2007-01-26 08:22:21 51°18.587 2°53.505 74 14.1 75 12.2
2007-01-26 08:22:26 51°18.594 2°53.534 77.7 14 69 12.2
2007-01-26 08:22:31 51°18.599 2°53.564 78 14 72 12.1
2007-01-26 08:22:36 51°18.607 2°53.593 77.3 14.2 68 12.2
2007-01-26 08:22:41 51°18.614 2°53.623 75.6 14.4 68 12.3
2007-01-26 08:22:46 51°18.62 2°53.652 74.1 14.2 69 12.2
2007-01-26 08:22:51 51°18.628 2°53.681 76.2 14 66 12.2
2007-01-26 08:22:56 51°18.637 2°53.708 73.7 13.9 66 12.2
2007-01-26 08:23:01 51°18.644 2°53.737 72.4 14 67 12.3
2007-01-26 08:23:06 51°18.653 2°53.765 72.1 14 66 12.1
2007-01-26 08:23:11 51°18.658 2°53.795 73.1 13.9 72 12.2
2007-01-26 08:23:16 51°18.666 2°53.823 76.2 14.1 68 12.1
2007-01-26 08:23:21 51°18.672 2°53.853 76.1 14.1 70 12.1
2007-01-26 08:23:26 51°18.678 2°53.882 74.5 14 72 12.2
2007-01-26 08:23:31 51°18.685 2°53.912 77.8 14.3 70 12.2
2007-01-26 08:23:36 51°18.694 2°53.941 75.5 14.4 66 12.1
2007-01-26 08:23:41 51°18.699 2°53.971 73.2 14.2 71 12.1
2007-01-26 08:23:46 51°18.707 2°54 76.2 14.2 67 12.1
2007-01-26 08:23:51 51°18.714 2°54.029 74.4 14.2 71 12.3
2007-01-26 08:23:56 51°18.721 2°54.059 75.4 14.4 69 12.1
2007-01-26 08:24:01 51°18.727 2°54.089 76.2 14.3 71 12.2
2007-01-26 08:24:06 51°18.735 2°54.118 76.3 14.1 68 12.2
2007-01-26 08:24:11 51°18.741 2°54.148 75.8 14.2 73 12.2
2007-01-26 08:24:16 51°18.748 2°54.177 76.4 14.2 67 12.3
2007-01-26 08:24:21 51°18.754 2°54.206 75.3 13.8 73 12.1
2007-01-26 08:24:26 51°18.76 2°54.234 76.6 13.7 70 12.1
2007-01-26 08:24:31 51°18.767 2°54.263 77.7 13.8 69 12.2
2007-01-26 08:24:36 51°18.775 2°54.291 75.6 13.8 66 12.2
2007-01-26 08:24:41 51°18.783 2°54.319 74 13.7 66 12.2
2007-01-26 08:24:46 51°18.79 2°54.347 72.8 13.9 68 12.2
2007-01-26 08:24:51 51°18.798 2°54.375 73.3 13.9 65 12.1
2007-01-26 08:24:56 51°18.805 2°54.404 72.8 13.9 69 12
2007-01-26 08:25:01 51°18.813 2°54.432 73.7 14.1 65 12.1
2007-01-26 08:25:06 51°18.822 2°54.46 72.5 14.1 66 12.1
2007-01-26 08:25:11 51°18.83 2°54.488 71.8 14 64 12.1
2007-01-26 08:25:16 51°18.837 2°54.517 71.8 14 68 12.1
2007-01-26 08:25:21 51°18.847 2°54.544 73.5 14.1 61 12.1
2007-01-26 08:25:26 51°18.855 2°54.573 70.9 14.2 66 12.2
2007-01-26 08:25:31 51°18.864 2°54.601 70.4 14.2 63 12.1
2007-01-26 08:25:36 51°18.871 2°54.63 70.5 14 67 12.1
2007-01-26 08:25:41 51°18.878 2°54.659 71.6 14 68 12
2007-01-26 08:25:46 51°18.886 2°54.687 74.6 14.1 66 12.1
2007-01-26 08:25:51 51°18.893 2°54.716 73.6 14.1 69 12
2007-01-26 08:25:56 51°18.901 2°54.745 74.3 13.9 68 12.2
2007-01-26 08:26:01 51°18.906 2°54.775 74 14 73 12.1
2007-01-26 08:26:06 51°18.915 2°54.802 76.7 14 65 12
2007-01-26 08:26:11 51°18.919 2°54.832 74.4 13.8 74 12.1
2007-01-26 08:26:16 51°18.928 2°54.86 77.5 14 66 12.2
2007-01-26 08:26:21 51°18.934 2°54.889 76 13.9 70 12
2007-01-26 08:26:26 51°18.942 2°54.916 75.2 13.8 65 12
2007-01-26 08:26:31 51°18.948 2°54.945 73.8 13.8 70 12
2007-01-26 08:26:36 51°18.956 2°54.973 74 13.7 68 12
2007-01-26 08:26:41 51°18.963 2°55.001 74.3 13.6 67 12.2
2007-01-26 08:26:46 51°18.97 2°55.029 73.6 13.6 69 12
2007-01-26 08:26:51 51°18.976 2°55.058 75 13.7 71 12
2007-01-26 08:26:56 51°18.983 2°55.086 75.7 13.7 71 12.1
2007-01-26 08:27:01 51°18.989 2°55.115 76.2 13.6 73 12.1
2007-01-26 08:27:06 51°18.995 2°55.143 78 13.7 69 12.2
2007-01-26 08:27:11 51°19.002 2°55.172 77.1 13.9 71 12.1
2007-01-26 08:27:16 51°19.008 2°55.201 76.1 14 68 12
2007-01-26 08:27:21 51°19.016 2°55.229 75.8 13.8 71 12
2007-01-26 08:27:26 51°19.022 2°55.258 75.7 13.9 69 12
2007-01-26 08:27:31 51°19.03 2°55.287 76.5 14 67 12
2007-01-26 08:27:36 51°19.037 2°55.316 74.6 14 69 12.1
2007-01-26 08:27:41 51°19.045 2°55.344 74.5 14.2 65 12
2007-01-26 08:27:46 51°19.052 2°55.374 73.4 14 69 11.8
2007-01-26 08:27:51 51°19.059 2°55.403 74.1 14 69 11.8
2007-01-26 08:27:56 51°19.067 2°55.431 75.9 14 66 11.9
2007-01-26 08:28:01 51°19.074 2°55.46 73.7 14.2 67 11.9
2007-01-26 08:28:06 51°19.082 2°55.488 73.4 14 64 12
2007-01-26 08:28:11 51°19.089 2°55.517 72.5 13.9 70 11.9
2007-01-26 08:28:16 51°19.098 2°55.545 74.4 14.2 64 12
2007-01-26 08:28:21 51°19.105 2°55.574 72.5 14 69 11.8
2007-01-26 08:28:26 51°19.112 2°55.602 73.4 13.9 68 11.9
2007-01-26 08:28:31 51°19.118 2°55.632 74.7 14 70 11.6
2007-01-26 08:28:36 51°19.125 2°55.661 76.1 14 70 11.6
2007-01-26 08:28:41 51°19.133 2°55.688 75.4 13.8 64 11.8
2007-01-26 08:28:46 51°19.14 2°55.716 73.3 13.6 68 11.7
2007-01-26 08:28:51 51°19.148 2°55.745 74 13.9 67 11.5
2007-01-26 08:28:56 51°19.156 2°55.773 72.1 13.9 66 11.6
2007-01-26 08:29:01 51°19.162 2°55.802 72 13.8 70 11.5
2007-01-26 08:29:06 51°19.17 2°55.83 74.8 14 67 11.7
2007-01-26 08:29:11 51°19.177 2°55.859 74 14 69 11.5
2007-01-26 08:29:16 51°19.185 2°55.887 74.1 13.9 69 11.5
2007-01-26 08:29:21 51°19.191 2°55.916 74.7 13.9 68 11.7
2007-01-26 08:29:26 51°19.199 2°55.944 75.1 13.9 66 11.5
2007-01-26 08:29:31 51°19.206 2°55.973 73.4 13.8 70 11.6
2007-01-26 08:29:36 51°19.212 2°56.002 74.2 14 69 11.6
2007-01-26 08:29:41 51°19.221 2°56.03 76.2 13.9 64 11.6
2007-01-26 08:29:46 51°19.227 2°56.058 73.1 13.8 71 11.7
2007-01-26 08:29:51 51°19.236 2°56.086 74.3 13.9 66 11.6
2007-01-26 08:29:56 51°19.242 2°56.115 73.7 14.1 69 11.9
2007-01-26 08:30:01 51°19.251 2°56.144 74.4 14.1 66 11.5
2007-01-26 08:30:06 51°19.258 2°56.172 73.6 14 69 11.6
2007-01-26 08:30:11 51°19.266 2°56.201 74.3 13.9 66 11.7
2007-01-26 08:30:16 51°19.273 2°56.229 73.1 13.8 68 12
2007-01-26 08:30:21 51°19.279 2°56.258 74 13.8 70 11.5
2007-01-26 08:30:26 51°19.288 2°56.285 76.2 13.8 65 11.6
2007-01-26 08:30:31 51°19.294 2°56.315 73.3 13.8 70 11.6
2007-01-26 08:30:36 51°19.302 2°56.342 75.3 13.9 65 11.7
2007-01-26 08:30:41 51°19.309 2°56.371 73.1 13.7 68 11.7
2007-01-26 08:30:46 51°19.316 2°56.4 72.8 13.9 69 11.5
2007-01-26 08:30:51 51°19.325 2°56.427 73.5 13.9 64 11.6
2007-01-26 08:30:56 51°19.331 2°56.456 71.4 13.9 71 11.6
2007-01-26 08:31:01 51°19.34 2°56.484 73.3 13.9 64 11.6
2007-01-26 08:31:06 51°19.346 2°56.513 73.3 14.1 69 11.8
2007-01-26 08:31:11 51°19.354 2°56.542 72.8 14.1 69 11.6
2007-01-26 08:31:16 51°19.361 2°56.571 74.4 14 68 11.6
2007-01-26 08:31:21 51°19.368 2°56.6 74.6 14.1 71 11.3
2007-01-26 08:31:26 51°19.375 2°56.629 75.6 14.2 68 11.3
2007-01-26 08:31:31 51°19.383 2°56.658 75.1 14.2 69 11.3
2007-01-26 08:31:36 51°19.39 2°56.688 74 14.2 68 11.4
2007-01-26 08:31:41 51°19.396 2°56.718 74.7 14.3 70 11.2
2007-01-26 08:31:46 51°19.404 2°56.747 76.1 14.3 68 11.1
2007-01-26 08:31:51 51°19.411 2°56.776 75 14.1 68 11.1
2007-01-26 08:31:56 51°19.419 2°56.805 74.4 14.3 67 11.2
2007-01-26 08:32:01 51°19.427 2°56.834 73.1 14.2 66 11.2
2007-01-26 08:32:06 51°19.433 2°56.864 72.6 14.1 72 11.1
2007-01-26 08:32:11 51°19.442 2°56.892 76.2 14.2 65 11.3
2007-01-26 08:32:16 51°19.448 2°56.922 73 14.3 70 11.2
2007-01-26 08:32:21 51°19.456 2°56.951 74.9 14.3 66 11.1
2007-01-26 08:32:26 51°19.463 2°56.979 72.9 13.9 68 11.3
2007-01-26 08:32:31 51°19.47 2°57.008 73.1 13.9 69 11.3
2007-01-26 08:32:36 51°19.478 2°57.037 75.1 14 66 11.2
2007-01-26 08:32:41 51°19.485 2°57.065 73.1 13.9 69 11.2
2007-01-26 08:32:46 51°19.491 2°57.095 73.5 14.1 72 11.2
2007-01-26 08:32:51 51°19.498 2°57.124 77.2 14.1 68 11.2
2007-01-26 08:32:56 51°19.504 2°57.153 76.2 13.9 71 11.1
2007-01-26 08:33:01 51°19.511 2°57.182 76.5 13.9 70 11.1
2007-01-26 08:33:06 51°19.518 2°57.212 76.8 14.3 69 11.1
2007-01-26 08:33:11 51°19.526 2°57.241 75.7 14.5 66 11.1
2007-01-26 08:33:16 51°19.534 2°57.27 73.2 14.3 67 11
2007-01-26 08:33:21 51°19.541 2°57.299 72.8 14.1 69 11
2007-01-26 08:33:26 51°19.547 2°57.329 74.3 14.1 72 11
2007-01-26 08:33:31 51°19.555 2°57.357 76.5 13.9 68 11.1
2007-01-26 08:33:36 51°19.56 2°57.388 76.1 14.2 72 11
2007-01-26 08:33:41 51°19.569 2°57.416 77.6 14.3 64 11
2007-01-26 08:33:46 51°19.575 2°57.445 72.9 14 74 11.1
2007-01-26 08:33:51 51°19.584 2°57.474 75.9 14.3 63 10.9
2007-01-26 08:33:56 51°19.591 2°57.503 73.3 14.2 66 10.8
2007-01-26 08:34:01 51°19.599 2°57.531 71.4 14.1 66 10.9
2007-01-26 08:34:06 51°19.607 2°57.56 72.7 14.2 65 10.8
2007-01-26 08:34:11 51°19.616 2°57.588 72.3 14.1 65 10.8
2007-01-26 08:34:16 51°19.624 2°57.616 71.3 14.1 66 10.8
2007-01-26 08:34:21 51°19.632 2°57.645 71.4 14 64 10.9
2007-01-26 08:34:26 51°19.64 2°57.673 70.8 13.9 69 11.1
2007-01-26 08:34:31 51°19.648 2°57.702 72.9 14.1 63 11
2007-01-26 08:34:36 51°19.656 2°57.729 71.2 13.8 67 11
2007-01-26 08:34:41 51°19.662 2°57.759 71 14 70 11.1
2007-01-26 08:34:46 51°19.672 2°57.785 74.7 13.9 62 11
2007-01-26 08:34:51 51°19.678 2°57.814 71.1 13.8 71 11.1
2007-01-26 08:34:56 51°19.686 2°57.842 73.8 14 64 10.9
2007-01-26 08:35:01 51°19.693 2°57.871 73.1 14 71 10.9
2007-01-26 08:35:06 51°19.701 2°57.899 74 13.8 64 11
2007-01-26 08:35:11 51°19.708 2°57.928 72.8 14 70 11
2007-01-26 08:35:16 51°19.717 2°57.956 73.7 14.2 64 10.9
2007-01-26 08:35:21 51°19.723 2°57.985 72.6 14.1 71 10.9
2007-01-26 08:35:26 51°19.732 2°58.013 74 14 66 10.9
2007-01-26 08:35:31 51°19.739 2°58.042 73.8 14 68 11
2007-01-26 08:35:36 51°19.746 2°58.071 74 14.1 67 10.9
2007-01-26 08:35:41 51°19.754 2°58.1 74 14 66 10.9
2007-01-26 08:35:46 51°19.761 2°58.129 71.9 14 70 10.8
2007-01-26 08:35:51 51°19.769 2°58.157 73.8 14 67 10.7
2007-01-26 08:35:56 51°19.776 2°58.186 74 14.1 70 10.8
2007-01-26 08:36:01 51°19.783 2°58.215 74.5 14.1 67 10.7
2007-01-26 08:36:06 51°19.79 2°58.244 74 13.9 70 10.8
2007-01-26 08:36:11 51°19.797 2°58.272 74.6 13.9 67 10.9
2007-01-26 08:36:16 51°19.805 2°58.301 75 13.9 67 10.9
2007-01-26 08:36:21 51°19.813 2°58.328 73.2 13.9 64 10.9
2007-01-26 08:36:26 51°19.821 2°58.357 71.7 13.9 67 10.8
2007-01-26 08:36:31 51°19.829 2°58.385 71.7 14 66 10.7
2007-01-26 08:36:36 51°19.837 2°58.414 72.2 14.2 67 10.8
2007-01-26 08:36:41 51°19.845 2°58.443 72.1 14.2 66 10.8
2007-01-26 08:36:46 51°19.852 2°58.471 72.2 14 68 10.9
2007-01-26 08:36:51 51°19.86 2°58.5 73.6 14 67 10.9
2007-01-26 08:36:56 51°19.868 2°58.529 74 14.2 65 10.9
2007-01-26 08:37:01 51°19.876 2°58.557 72.3 14.3 66 10.9
2007-01-26 08:37:06 51°19.885 2°58.585 71.7 14.2 64 10.8
2007-01-26 08:37:11 51°19.893 2°58.613 70.1 14 66 10.9
2007-01-26 08:37:16 51°19.9 2°58.643 71.2 14.3 69 10.8
2007-01-26 08:37:21 51°19.909 2°58.671 73.7 14.3 63 10.8
2007-01-26 08:37:26 51°19.914 2°58.701 71.4 13.9 75 10.9
2007-01-26 08:37:31 51°19.923 2°58.729 76.2 14.1 65 10.9
2007-01-26 08:37:36 51°19.929 2°58.759 74.9 14.2 68 10.8
2007-01-26 08:37:41 51°19.938 2°58.787 73.7 14.1 65 10.7
2007-01-26 08:37:46 51°19.946 2°58.816 72.1 14.1 67 10.8
2007-01-26 08:37:51 51°19.953 2°58.844 72.1 14 67 10.8
2007-01-26 08:37:56 51°19.96 2°58.873 73.3 13.9 68 10.8
2007-01-26 08:38:01 51°19.968 2°58.901 74.3 14 67 11
2007-01-26 08:38:06 51°19.976 2°58.929 74 14.1 65 10.8
2007-01-26 08:38:11 51°19.983 2°58.959 72.2 14.2 69 10.8
2007-01-26 08:38:16 51°19.992 2°58.986 73 13.9 63 10.9
2007-01-26 08:38:21 51°19.998 2°59.015 70.6 13.8 73 10.9
2007-01-26 08:38:26 51°20.006 2°59.044 75.1 14.2 67 11
2007-01-26 08:38:31 51°20.014 2°59.073 74.6 14.2 65 10.8
2007-01-26 08:38:36 51°20.021 2°59.102 72.1 14 69 10.9
2007-01-26 08:38:41 51°20.029 2°59.13 73.3 13.9 68 10.8
2007-01-26 08:38:46 51°20.036 2°59.158 74 13.9 68 10.8
2007-01-26 08:38:51 51°20.042 2°59.187 74.2 13.9 70 10.7
2007-01-26 08:38:56 51°20.05 2°59.216 75.2 14.1 67 10.8
2007-01-26 08:39:01 51°20.057 2°59.245 73.5 13.9 69 10.8
2007-01-26 08:39:06 51°20.063 2°59.273 73.3 13.6 70 10.8
2007-01-26 08:39:11 51°20.07 2°59.302 75.3 14 68 10.8
2007-01-26 08:39:16 51°20.079 2°59.33 73.8 14.1 63 10.7
2007-01-26 08:39:21 51°20.087 2°59.358 71.1 13.7 67 10.6
2007-01-26 08:39:26 51°20.096 2°59.385 71 13.7 63 10.7
2007-01-26 08:39:31 51°20.103 2°59.412 70.4 13.6 66 10.7
2007-01-26 08:39:36 51°20.111 2°59.439 70.8 13.4 66 10.8
2007-01-26 08:39:41 51°20.118 2°59.467 71.8 13.5 68 10.7
2007-01-26 08:39:46 51°20.126 2°59.493 71.8 13.2 69 10.7
2007-01-26 08:39:51 51°20.131 2°59.522 72.3 13.4 73 10.7
2007-01-26 08:39:56 51°20.141 2°59.547 75.1 13.3 61 11
2007-01-26 08:40:01 51°20.146 2°59.576 71.1 13.2 72 10.9
2007-01-26 08:40:06 51°20.154 2°59.603 73.3 13.5 66 10.7
2007-01-26 08:40:11 51°20.16 2°59.631 73.2 13.5 69 10.6
2007-01-26 08:40:16 51°20.165 2°59.659 73.7 13.4 73 10.6
2007-01-26 08:40:21 51°20.172 2°59.687 77 13.5 70 10.7
2007-01-26 08:40:26 51°20.178 2°59.716 76.1 13.6 70 10.8
2007-01-26 08:40:31 51°20.184 2°59.745 76.1 13.8 72 10.7
2007-01-26 08:40:36 51°20.191 2°59.773 76.7 13.8 69 10.5
2007-01-26 08:40:41 51°20.197 2°59.801 75.1 13.5 72 10.6
2007-01-26 08:40:46 51°20.203 2°59.83 76.8 13.6 71 10.6
2007-01-26 08:40:51 51°20.211 2°59.858 76.6 13.8 68 10.6
2007-01-26 08:40:56 51°20.219 2°59.886 73.3 13.7 66 10.6
2007-01-26 08:41:01 51°20.224 2°59.914 72.3 13.6 72 10.7
2007-01-26 08:41:06 51°20.232 2°59.942 75 13.7 67 10.6
2007-01-26 08:41:11 51°20.238 2°59.972 74.7 14 71 10.7
2007-01-26 08:41:16 51°20.247 2°59.999 74.3 13.8 64 10.6
2007-01-26 08:41:21 51°20.252 3°0.028 72.6 13.8 71 10.6
2007-01-26 08:41:26 51°20.262 3°0.055 73.5 13.9 63 10.6
2007-01-26 08:41:31 51°20.268 3°0.085 71.3 13.9 71 10.6
2007-01-26 08:41:36 51°20.276 3°0.113 72.9 14.1 65 10.6
2007-01-26 08:41:41 51°20.282 3°0.142 73.1 13.9 71 10.5
2007-01-26 08:41:46 51°20.289 3°0.171 74.7 13.8 69 10.6
2007-01-26 08:41:51 51°20.295 3°0.2 74.9 13.9 71 10.5
2007-01-26 08:41:56 51°20.304 3°0.228 74.9 13.9 64 10.6
2007-01-26 08:42:01 51°20.31 3°0.257 72.5 13.8 72 10.6
2007-01-26 08:42:06 51°20.318 3°0.284 74.7 13.9 64 10.7
2007-01-26 08:42:11 51°20.325 3°0.314 73 13.9 70 10.7
2007-01-26 08:42:16 51°20.333 3°0.342 73.2 14 65 10.7
2007-01-26 08:42:21 51°20.339 3°0.371 72.6 14.1 69 10.7
2007-01-26 08:42:26 51°20.348 3°0.399 73.6 14.1 66 10.5
2007-01-26 08:42:31 51°20.355 3°0.428 72.3 13.9 67 10.6
2007-01-26 08:42:36 51°20.362 3°0.457 72 13.9 70 10.6
2007-01-26 08:42:41 51°20.37 3°0.485 74.2 14 66 10.7
2007-01-26 08:42:46 51°20.376 3°0.514 73.6 14 70 10.6
2007-01-26 08:42:51 51°20.384 3°0.543 74.7 14.1 67 10.7
2007-01-26 08:42:56 51°20.392 3°0.571 73.7 14 67 10.7
2007-01-26 08:43:01 51°20.398 3°0.6 72.9 13.8 69 10.9
2007-01-26 08:43:06 51°20.406 3°0.629 74.7 14 67 10.5
2007-01-26 08:43:11 51°20.413 3°0.657 74.1 13.8 68 10.4
2007-01-26 08:43:16 51°20.42 3°0.686 74 14 68 10.5
2007-01-26 08:43:21 51°20.428 3°0.715 74 14.2 67 10.5
2007-01-26 08:43:26 51°20.435 3°0.745 73.3 14.4 69 10.4
2007-01-26 08:43:31 51°20.445 3°0.773 74.4 14.3 63 10.4
2007-01-26 08:43:36 51°20.451 3°0.802 70.6 14.1 70 10.6
2007-01-26 08:43:41 51°20.46 3°0.83 72.5 14.2 66 10.7
2007-01-26 08:43:46 51°20.466 3°0.86 72.9 14.2 69 10.6
2007-01-26 08:43:51 51°20.474 3°0.888 73.4 14.1 68 10.6
2007-01-26 08:43:56 51°20.48 3°0.919 73.5 14.3 72 10.6
2007-01-26 08:44:01 51°20.488 3°0.948 76.3 14.2 67 10.6
2007-01-26 08:44:06 51°20.494 3°0.977 74.6 14 71 10.7
2007-01-26 08:44:11 51°20.502 3°1.007 76.8 14.3 68 10.5
2007-01-26 08:44:16 51°20.51 3°1.036 74.9 14.4 66 10.6
2007-01-26 08:44:21 51°20.516 3°1.065 72.4 14.1 71 10.6
2007-01-26 08:44:26 51°20.523 3°1.094 74.7 14.2 67 10.6
2007-01-26 08:44:31 51°20.53 3°1.124 74.4 14.1 70 10.6
2007-01-26 08:44:36 51°20.538 3°1.153 75 14.2 68 10.7
2007-01-26 08:44:41 51°20.544 3°1.183 74.7 14.5 70 10.7
2007-01-26 08:44:46 51°20.554 3°1.211 74.7 14.2 62 10.5
2007-01-26 08:44:51 51°20.559 3°1.242 72.1 14.3 72 10.5
2007-01-26 08:44:56 51°20.57 3°1.268 74.9 14.3 59 10.5
2007-01-26 08:45:01 51°20.575 3°1.298 69.2 14 72 11
2007-01-26 08:45:06 51°20.584 3°1.326 73.1 14.3 65 10.4
2007-01-26 08:45:11 51°20.591 3°1.357 74 14.5 69 10.4
2007-01-26 08:45:16 51°20.6 3°1.384 73 14.1 64 10.4
2007-01-26 08:45:21 51°20.605 3°1.413 71.5 13.8 72 10.7
2007-01-26 08:45:26 51°20.613 3°1.442 74.5 14.3 64 10.6
2007-01-26 08:45:31 51°20.622 3°1.47 73.3 14 64 10.4
2007-01-26 08:45:36 51°20.628 3°1.498 69 13.6 71 10.6
2007-01-26 08:45:41 51°20.635 3°1.528 74 14.2 71 10.7
2007-01-26 08:45:46 51°20.645 3°1.556 76.1 14.2 62 10.6
2007-01-26 08:45:51 51°20.65 3°1.585 70.9 13.7 72 10.7
2007-01-26 08:45:56 51°20.658 3°1.612 74.3 13.5 68 10.8
2007-01-26 08:46:01 51°20.663 3°1.642 74.5 14 72 10.8
2007-01-26 08:46:06 51°20.673 3°1.67 76.1 14.1 63 10.8
2007-01-26 08:46:11 51°20.677 3°1.699 72.1 13.7 75 10.8
2007-01-26 08:46:16 51°20.685 3°1.728 75.5 13.9 68 10.7
2007-01-26 08:46:21 51°20.692 3°1.756 76.2 13.7 68 10.7
2007-01-26 08:46:26 51°20.698 3°1.785 74.7 13.7 71 10.7
2007-01-26 08:46:31 51°20.705 3°1.813 75.4 13.6 69 10.6
2007-01-26 08:46:36 51°20.711 3°1.842 74.6 13.9 71 10.6
2007-01-26 08:46:41 51°20.719 3°1.87 76 13.7 67 10.5
2007-01-26 08:46:46 51°20.724 3°1.898 73.3 13.4 71 10.7
2007-01-26 08:46:51 51°20.732 3°1.926 74.8 13.6 67 10.6
2007-01-26 08:46:56 51°20.738 3°1.954 74.2 13.6 70 10.6
2007-01-26 08:47:01 51°20.746 3°1.981 73.9 13.5 66 10.6
2007-01-26 08:47:06 51°20.752 3°2.009 72.8 13.3 72 10.7
2007-01-26 08:47:11 51°20.759 3°2.037 74.9 13.6 67 10.7
2007-01-26 08:47:16 51°20.767 3°2.065 73.6 13.6 66 10.6
2007-01-26 08:47:21 51°20.773 3°2.093 71.9 13.4 71 10.5
2007-01-26 08:47:26 51°20.78 3°2.122 74 13.9 69 10.5
2007-01-26 08:47:31 51°20.787 3°2.15 75.1 13.9 69 10.6
2007-01-26 08:47:36 51°20.793 3°2.178 74 13.5 71 10.7
2007-01-26 08:47:41 51°20.799 3°2.207 75 13.5 69 10.7
2007-01-26 08:47:46 51°20.806 3°2.235 75.3 13.7 70 10.6
2007-01-26 08:47:51 51°20.813 3°2.263 74.2 13.7 67 10.5
2007-01-26 08:47:56 51°20.82 3°2.291 73.3 13.7 70 10.6
2007-01-26 08:48:01 51°20.827 3°2.319 73.9 13.8 67 10.7
2007-01-26 08:48:06 51°20.834 3°2.347 72.8 13.5 69 10.7
2007-01-26 08:48:11 51°20.839 3°2.377 73.2 13.7 72 10.5
2007-01-26 08:48:16 51°20.849 3°2.404 76 13.9 63 10.6
2007-01-26 08:48:21 51°20.855 3°2.432 70.6 13.5 70 10.6
2007-01-26 08:48:26 51°20.861 3°2.461 72.5 13.8 73 10.6
2007-01-26 08:48:31 51°20.868 3°2.49 76.5 14 66 10.5
2007-01-26 08:48:36 51°20.874 3°2.518 73.5 13.6 73 10.7
2007-01-26 08:48:41 51°20.882 3°2.546 74.7 13.7 65 10.7
2007-01-26 08:48:46 51°20.888 3°2.574 74.1 13.7 71 10.7
2007-01-26 08:48:51 51°20.897 3°2.601 73.6 13.8 63 10.7
2007-01-26 08:48:56 51°20.904 3°2.63 71.9 13.8 69 10.6
2007-01-26 08:49:01 51°20.912 3°2.658 71.9 13.7 67 10.7
2007-01-26 08:49:06 51°20.919 3°2.686 72.6 13.9 67 10.7
2007-01-26 08:49:11 51°20.926 3°2.715 72.6 13.8 68 10.7
2007-01-26 08:49:16 51°20.934 3°2.742 72.8 13.8 66 10.8
2007-01-26 08:49:21 51°20.942 3°2.771 73.3 13.8 65 10.8
2007-01-26 08:49:26 51°20.95 3°2.798 72.1 13.6 64 10.7
2007-01-26 08:49:31 51°20.957 3°2.826 70.6 13.9 69 10.7
2007-01-26 08:49:36 51°20.966 3°2.855 71.9 14.2 66 10.7
2007-01-26 08:49:41 51°20.972 3°2.884 70.7 14 70 10.7
2007-01-26 08:49:46 51°20.978 3°2.913 72.8 13.8 72 10.6
2007-01-26 08:49:51 51°20.985 3°2.941 76.9 13.7 68 10.7
2007-01-26 08:49:56 51°20.992 3°2.97 74.7 14 67 10.7
2007-01-26 08:50:01 51°21.002 3°2.996 72.6 13.8 62 10.7
2007-01-26 08:50:06 51°21.008 3°3.024 69.4 13.4 71 10.8
2007-01-26 08:50:11 51°21.015 3°3.053 72 13.7 69 10.8
2007-01-26 08:50:16 51°21.022 3°3.08 74 13.7 66 10.8
2007-01-26 08:50:21 51°21.028 3°3.109 72.8 13.6 71 10.8
2007-01-26 08:50:26 51°21.037 3°3.136 74.3 13.5 64 10.8
2007-01-26 08:50:31 51°21.042 3°3.165 72 13.8 72 10.9
2007-01-26 08:50:36 51°21.052 3°3.192 73.3 14 60 10.8
2007-01-26 08:50:41 51°21.058 3°3.22 69.2 13.5 70 10.7
2007-01-26 08:50:46 51°21.066 3°3.247 72.8 13.7 63 10.9
2007-01-26 08:50:51 51°21.074 3°3.276 72.1 13.8 68 10.8
2007-01-26 08:50:56 51°21.081 3°3.303 71.6 13.7 65 10.9
2007-01-26 08:51:01 51°21.088 3°3.331 71.2 13.5 71 11.1
2007-01-26 08:51:06 51°21.095 3°3.359 73.6 13.5 67 10.9
2007-01-26 08:51:11 51°21.102 3°3.387 73.7 13.6 70 11.1
2007-01-26 08:51:16 51°21.109 3°3.415 73.7 13.7 66 10.9
2007-01-26 08:51:21 51°21.117 3°3.443 72.3 13.6 69 11.1
2007-01-26 08:51:26 51°21.124 3°3.471 71.2 13.6 66 10.9
2007-01-26 08:51:31 51°21.132 3°3.498 72.5 13.5 67 11
2007-01-26 08:51:36 51°21.138 3°3.527 71 13.7 68 11.1
2007-01-26 08:51:41 51°21.147 3°3.554 72.6 13.8 65 10.9
2007-01-26 08:51:46 51°21.154 3°3.582 70.5 13.7 68 11
2007-01-26 08:51:51 51°21.162 3°3.61 71.6 13.8 65 11
2007-01-26 08:51:56 51°21.168 3°3.638 71.6 13.4 71 11
2007-01-26 08:52:01 51°21.175 3°3.666 74.4 13.7 69 11
2007-01-26 08:52:06 51°21.183 3°3.694 74.8 13.9 65 11
2007-01-26 08:52:11 51°21.189 3°3.723 71.9 14 70 10.9
2007-01-26 08:52:16 51°21.197 3°3.751 73.4 13.9 66 10.9
2007-01-26 08:52:21 51°21.203 3°3.781 72.5 14 72 11
2007-01-26 08:52:26 51°21.211 3°3.808 73.5 13.8 66 10.9
2007-01-26 08:52:31 51°21.216 3°3.838 73 13.8 75 10.9
2007-01-26 08:52:36 51°21.224 3°3.866 75.1 14 67 11
2007-01-26 08:52:41 51°21.229 3°3.896 74.5 13.7 75 11
2007-01-26 08:52:46 51°21.235 3°3.924 77.2 13.8 70 11
2007-01-26 08:52:51 51°21.243 3°3.953 76.6 13.9 68 11
2007-01-26 08:52:56 51°21.25 3°3.981 73.8 13.7 70 11.1
2007-01-26 08:53:01 51°21.257 3°4.009 73.4 13.8 66 11.1
2007-01-26 08:53:06 51°21.265 3°4.036 71.9 13.6 66 11
2007-01-26 08:53:11 51°21.272 3°4.064 70.8 13.5 67 11.1
2007-01-26 08:53:16 51°21.28 3°4.092 71.8 13.6 69 11
2007-01-26 08:53:21 51°21.286 3°4.12 72.7 13.7 69 11.1
2007-01-26 08:53:26 51°21.294 3°4.148 73.5 13.7 67 11.1
2007-01-26 08:53:31 51°21.3 3°4.176 72.5 13.4 69 11.2
2007-01-26 08:53:36 51°21.306 3°4.204 73.5 13.5 70 11.1
2007-01-26 08:53:41 51°21.313 3°4.232 74.4 13.3 71 11
2007-01-26 08:53:46 51°21.319 3°4.26 75 13.4 71 11.1
2007-01-26 08:53:51 51°21.326 3°4.289 75.4 13.6 70 11.1
2007-01-26 08:53:56 51°21.333 3°4.316 74.6 13.6 67 11.2
2007-01-26 08:54:01 51°21.339 3°4.345 73.4 13.9 71 11.1
2007-01-26 08:54:06 51°21.347 3°4.372 74.3 13.6 64 11.2
2007-01-26 08:54:11 51°21.353 3°4.401 72.2 13.6 70 11.2
2007-01-26 08:54:16 51°21.362 3°4.429 73.4 13.9 65 11.2
2007-01-26 08:54:21 51°21.369 3°4.457 71.8 13.7 69 11.2
2007-01-26 08:54:26 51°21.376 3°4.485 71.8 13.6 65 11.3
2007-01-26 08:54:31 51°21.384 3°4.512 71.8 13.6 67 11.1
2007-01-26 08:54:36 51°21.392 3°4.54 70.9 13.9 65 11.3
2007-01-26 08:54:41 51°21.4 3°4.568 70.9 13.9 66 11.2
2007-01-26 08:54:46 51°21.408 3°4.596 70.9 13.6 67 11.2
2007-01-26 08:54:51 51°21.415 3°4.623 71.9 13.3 67 11.3
2007-01-26 08:54:56 51°21.421 3°4.651 72.7 13.4 69 11.2
2007-01-26 08:55:01 51°21.429 3°4.678 74 13.5 64 11.3
2007-01-26 08:55:06 51°21.436 3°4.706 72.2 13.6 70 11.3
2007-01-26 08:55:11 51°21.444 3°4.733 72.7 13.5 64 11.4
2007-01-26 08:55:16 51°21.45 3°4.761 71.7 13.2 71 11.5
2007-01-26 08:55:21 51°21.456 3°4.789 73.4 13.7 71 11.5
2007-01-26 08:55:26 51°21.464 3°4.818 76.2 14.1 66 11.4
2007-01-26 08:55:31 51°21.472 3°4.845 72.9 13.6 66 11.3
2007-01-26 08:55:36 51°21.478 3°4.874 71.7 13.6 71 11.4
2007-01-26 08:55:41 51°21.486 3°4.901 74 13.7 64 11.4
2007-01-26 08:55:46 51°21.492 3°4.93 72.4 13.9 69 11.3
2007-01-26 08:55:51 51°21.501 3°4.958 73 13.9 67 11.4
2007-01-26 08:55:56 51°21.507 3°4.987 73.2 13.7 68 11.3
2007-01-26 08:56:01 51°21.513 3°5.016 72.5 13.7 72 11.3
2007-01-26 08:56:06 51°21.52 3°5.044 75.2 13.9 67 11.4
2007-01-26 08:56:11 51°21.526 3°5.074 74.5 14.1 74 11.3
2007-01-26 08:56:16 51°21.534 3°5.103 77.2 14.1 64 11.4
2007-01-26 08:56:21 51°21.54 3°5.131 72.2 13.5 72 11.5
2007-01-26 08:56:26 51°21.547 3°5.159 72.5 13.6 69 11.6
2007-01-26 08:56:31 51°21.554 3°5.187 75.6 13.8 68 11.5
2007-01-26 08:56:36 51°21.562 3°5.216 73.3 14 65 11.6
2007-01-26 08:56:41 51°21.57 3°5.243 70.9 13.6 65 11.5
2007-01-26 08:56:46 51°21.576 3°5.271 70.6 13.5 70 11.4
2007-01-26 08:56:51 51°21.584 3°5.298 73 13.3 65 11.5
2007-01-26 08:56:56 51°21.59 3°5.327 72.5 13.8 70 11.5
2007-01-26 08:57:01 51°21.6 3°5.353 72.9 13.9 61 11.4
2007-01-26 08:57:06 51°21.605 3°5.382 70.4 13.4 73 11.5
2007-01-26 08:57:11 51°21.612 3°5.41 73.2 13.6 68 11.6
2007-01-26 08:57:16 51°21.62 3°5.438 74.4 13.7 67 11.6
2007-01-26 08:57:21 51°21.626 3°5.466 72.1 13.7 71 11.6
2007-01-26 08:57:26 51°21.634 3°5.495 73.6 13.8 67 11.7
2007-01-26 08:57:31 51°21.641 3°5.523 72.2 13.9 66 11.6
2007-01-26 08:57:36 51°21.649 3°5.551 70.6 13.6 67 11.6
2007-01-26 08:57:41 51°21.655 3°5.579 70.9 13.5 69 11.5
2007-01-26 08:57:46 51°21.662 3°5.607 73.7 13.8 68 11.6
2007-01-26 08:57:51 51°21.67 3°5.635 73.1 13.7 67 11.5
2007-01-26 08:57:56 51°21.676 3°5.663 72.8 13.4 70 11.5
2007-01-26 08:58:01 51°21.684 3°5.691 73.7 13.5 67 11.7
2007-01-26 08:58:06 51°21.69 3°5.718 73.2 13.4 67 11.6
2007-01-26 08:58:11 51°21.696 3°5.747 72.6 13.4 73 11.7
2007-01-26 08:58:16 51°21.703 3°5.775 75.7 13.6 68 11.6
2007-01-26 08:58:21 51°21.71 3°5.802 73.6 13.5 68 11.6
2007-01-26 08:58:26 51°21.716 3°5.83 73.2 13.4 70 11.6
2007-01-26 08:58:31 51°21.723 3°5.858 74 13.4 70 11.5
2007-01-26 08:58:36 51°21.728 3°5.886 73.6 13.4 74 11.6
2007-01-26 08:58:41 51°21.734 3°5.915 76.3 13.6 70 11.6
2007-01-26 08:58:46 51°21.742 3°5.943 75.5 13.7 66 11.6
2007-01-26 08:58:51 51°21.748 3°5.97 72.4 13.2 69 11.8
2007-01-26 08:58:56 51°21.755 3°5.998 73.1 13.2 70 11.8
2007-01-26 08:59:01 51°21.762 3°6.025 73.5 13.3 68 11.9
2007-01-26 08:59:06 51°21.768 3°6.053 73.2 13.4 71 11.8
2007-01-26 08:59:11 51°21.774 3°6.081 74.7 13.3 71 11.9
2007-01-26 08:59:16 51°21.779 3°6.109 75.4 13.3 71 11.8
2007-01-26 08:59:21 51°21.787 3°6.136 76.5 13.2 68 11.8
2007-01-26 08:59:26 51°21.793 3°6.164 74.1 13.4 70 11.8
2007-01-26 08:59:31 51°21.799 3°6.193 74 13.6 70 11.6
2007-01-26 08:59:36 51°21.804 3°6.221 73.6 13.2 74 11.7
2007-01-26 08:59:41 51°21.809 3°6.249 76.9 13.3 75 11.8
2007-01-26 08:59:46 51°21.816 3°6.277 77.8 13.5 69 11.8
2007-01-26 08:59:51 51°21.822 3°6.305 75.3 13.3 70 11.8
2007-01-26 08:59:56 51°21.828 3°6.333 74.7 13.5 72 11.8
2007-01-26 09:00:01 51°21.836 3°6.36 75.8 13.3 65 11.8
2007-01-26 09:00:06 51°21.84 3°6.388 72.5 13.3 76 11.9
2007-01-26 09:00:11 51°21.847 3°6.416 75 13.4 67 11.9
2007-01-26 09:00:16 51°21.853 3°6.443 73.1 13.2 73 11.9
2007-01-26 09:00:21 51°21.857 3°6.472 75.2 13.2 77 12
2007-01-26 09:00:26 51°21.861 3°6.5 79.2 13.1 77 12
2007-01-26 09:00:31 51°21.864 3°6.53 81.4 13.2 82 12
2007-01-26 09:00:36 51°21.868 3°6.558 83.6 13.5 76 12.1
2007-01-26 09:00:41 51°21.87 3°6.588 82.7 13.2 83 12
2007-01-26 09:00:46 51°21.873 3°6.616 84 12.8 81 12.1
2007-01-26 09:00:51 51°21.873 3°6.645 85.8 13.3 88 12.1
2007-01-26 09:00:56 51°21.877 3°6.674 88.5 13.4 78 12.2
2007-01-26 09:01:01 51°21.877 3°6.703 86.1 12.9 90 12.2
2007-01-26 09:01:06 51°21.88 3°6.732 88.5 13 82 12.1
2007-01-26 09:01:11 51°21.882 3°6.76 88.8 12.9 85 12.1
2007-01-26 09:01:16 51°21.882 3°6.789 88.3 13.1 85 12
2007-01-26 09:01:21 51°21.886 3°6.819 90 13.5 80 12
2007-01-26 09:01:26 51°21.888 3°6.848 85.2 13.2 81 12
2007-01-26 09:01:31 51°21.888 3°6.876 84.6 13.2 89 12
2007-01-26 09:01:36 51°21.892 3°6.905 89.2 13.2 79 12.1
2007-01-26 09:01:41 51°21.892 3°6.934 87.5 13.2 88 12.1
2007-01-26 09:01:46 51°21.896 3°6.963 88.5 13.2 79 12.1
2007-01-26 09:01:51 51°21.898 3°6.992 85.9 13.3 82 12.2
2007-01-26 09:01:56 51°21.903 3°7.021 85.1 13.4 76 12.1
2007-01-26 09:02:01 51°21.906 3°7.05 83.2 13.1 80 12
2007-01-26 09:02:06 51°21.908 3°7.079 82.2 13.1 83 12.1
2007-01-26 09:02:11 51°21.912 3°7.109 84.8 13.7 79 12
2007-01-26 09:02:16 51°21.914 3°7.138 83.5 13.3 84 12
2007-01-26 09:02:21 51°21.916 3°7.167 85 13.2 83 12.1
2007-01-26 09:02:26 51°21.917 3°7.198 87 14 85 11.9
2007-01-26 09:02:31 51°21.923 3°7.227 88 13.8 75 12
2007-01-26 09:02:36 51°21.922 3°7.257 83.5 13.3 91 12
2007-01-26 09:02:41 51°21.926 3°7.287 88.9 13.9 80 12
2007-01-26 09:02:46 51°21.927 3°7.318 88.2 14.1 85 12
2007-01-26 09:02:51 51°21.931 3°7.348 86.5 13.9 78 12.1
2007-01-26 09:02:56 51°21.932 3°7.379 85.3 13.8 85 12.1
2007-01-26 09:03:01 51°21.936 3°7.408 86 13.7 79 12.2
2007-01-26 09:03:06 51°21.938 3°7.439 85.6 13.8 84 12.2
2007-01-26 09:03:11 51°21.944 3°7.468 85.9 13.8 74 12.2
2007-01-26 09:03:16 51°21.946 3°7.498 82.1 13.6 81 12.3
2007-01-26 09:03:21 51°21.95 3°7.528 82.7 13.7 80 12
2007-01-26 09:03:26 51°21.954 3°7.557 83.3 13.4 78 12.2
2007-01-26 09:03:31 51°21.957 3°7.587 82 13.5 80 12.2
2007-01-26 09:03:36 51°21.962 3°7.615 83.6 13.4 76 12.1
2007-01-26 09:03:41 51°21.964 3°7.645 82.4 13.3 82 12.2
2007-01-26 09:03:46 51°21.969 3°7.673 83.2 13.2 76 12.3
2007-01-26 09:03:51 51°21.97 3°7.702 82.4 13.3 84 12.2
2007-01-26 09:03:56 51°21.976 3°7.731 84.8 13.6 73 12.2
2007-01-26 09:04:01 51°21.979 3°7.76 81.2 13.3 81 12.1
2007-01-26 09:04:06 51°21.981 3°7.789 82 13.4 82 12.1
2007-01-26 09:04:11 51°21.985 3°7.819 84.1 13.3 82 12.1
2007-01-26 09:04:16 51°21.986 3°7.848 84.7 13.4 85 12.2
2007-01-26 09:04:21 51°21.99 3°7.877 86.8 13.4 78 12.3
2007-01-26 09:04:26 51°21.992 3°7.907 84.3 13.3 84 12.3
2007-01-26 09:04:31 51°21.996 3°7.936 85.6 13.3 78 12.3
2007-01-26 09:04:36 51°21.998 3°7.965 84.5 13.3 82 12.2
2007-01-26 09:04:41 51°22.002 3°7.994 84.5 13.3 77 12.2
2007-01-26 09:04:46 51°22.006 3°8.023 83.2 13.3 78 12.1
2007-01-26 09:04:51 51°22.01 3°8.051 82.1 13.3 77 12.2
2007-01-26 09:04:56 51°22.014 3°8.08 81.4 13.2 78 12.2
2007-01-26 09:05:01 51°22.017 3°8.109 81.4 13.2 81 12.3
2007-01-26 09:05:06 51°22.021 3°8.138 83.2 13.6 77 12.2
2007-01-26 09:05:11 51°22.024 3°8.168 82.7 13.6 81 12.3
2007-01-26 09:05:16 51°22.027 3°8.197 83.1 13.2 78 12.3
2007-01-26 09:05:21 51°22.03 3°8.226 83.5 13.3 82 12.3
2007-01-26 09:05:26 51°22.034 3°8.256 84.2 13.7 76 12.1
2007-01-26 09:05:31 51°22.039 3°8.285 81.7 13.5 78 12.1
2007-01-26 09:05:36 51°22.041 3°8.314 80.7 13.3 80 12.2
2007-01-26 09:05:41 51°22.045 3°8.342 82.5 13 80 12.2
2007-01-26 09:05:46 51°22.047 3°8.371 83.1 13 83 12.3
2007-01-26 09:05:51 51°22.049 3°8.4 85.5 13.4 84 12.3
2007-01-26 09:05:56 51°22.053 3°8.429 86.4 13.3 77 12.4
2007-01-26 09:06:01 51°22.055 3°8.458 83.7 13.1 82 12.4
2007-01-26 09:06:06 51°22.059 3°8.487 84.1 13.1 79 12.3
2007-01-26 09:06:11 51°22.062 3°8.515 83.5 13.1 82 12.3
2007-01-26 09:06:16 51°22.065 3°8.544 83.8 13.4 80 12.4
2007-01-26 09:06:21 51°22.067 3°8.574 84.9 13.3 84 12.3
2007-01-26 09:06:26 51°22.07 3°8.602 84.9 13.1 81 12.4
2007-01-26 09:06:31 51°22.071 3°8.631 84.6 13.1 85 12.5
2007-01-26 09:06:36 51°22.074 3°8.661 87 13.3 83 12.5
2007-01-26 09:06:41 51°22.076 3°8.691 87 13.7 83 12.5
2007-01-26 09:06:46 51°22.081 3°8.719 85.5 12.8 79 12.4
2007-01-26 09:06:51 51°22.081 3°8.747 82.8 12.4 86 12.4
2007-01-26 09:06:56 51°22.085 3°8.772 85.7 12 78 12.4
2007-01-26 09:07:01 51°22.086 3°8.799 85.3 11.8 85 12.5
2007-01-26 09:07:06 51°22.091 3°8.823 86.5 11.6 74 12.5
2007-01-26 09:07:11 51°22.092 3°8.847 82.2 10.8 86 12.7
2007-01-26 09:07:16 51°22.093 3°8.87 84.1 10.4 86 12.6
2007-01-26 09:07:21 51°22.09 3°8.891 89.2 9.7 103 12.6
2007-01-26 09:07:26 51°22.084 3°8.909 99 8.9 118 12.7
2007-01-26 09:07:31 51°22.078 3°8.925 112 8.5 123 12.6
2007-01-26 09:07:36 51°22.069 3°8.937 121.2 8 138 12.7
2007-01-26 09:07:41 51°22.06 3°8.946 132.8 7.8 146 12.6
2007-01-26 09:07:46 51°22.05 3°8.951 143.1 7.5 161 12.8
2007-01-26 09:07:51 51°22.04 3°8.955 154.5 7.5 167 12.7
2007-01-26 09:07:56 51°22.03 3°8.955 163.3 7.2 180 12.7
2007-01-26 09:08:01 51°22.02 3°8.954 173.4 7.2 186 12.7
2007-01-26 09:08:06 51°22.011 3°8.949 182.8 7 197 12.6
2007-01-26 09:08:11 51°22.002 3°8.942 192.6 7 205 12.6
2007-01-26 09:08:16 51°21.995 3°8.933 202.5 7 215 12.6
2007-01-26 09:08:21 51°21.987 3°8.924 212.3 7.2 219 12.7
2007-01-26 09:08:26 51°21.979 3°8.913 219.3 7.3 223 12.5
2007-01-26 09:08:31 51°21.972 3°8.902 223.8 7.3 220 12.4
2007-01-26 09:08:36 51°21.965 3°8.891 224.9 7.3 223 12.5
2007-01-26 09:08:41 51°21.957 3°8.881 224.4 7.2 217 12.4
2007-01-26 09:08:46 51°21.949 3°8.872 220.7 7.2 216 12.5
2007-01-26 09:08:51 51°21.941 3°8.863 217.9 7.1 212 12.4
2007-01-26 09:08:56 51°21.932 3°8.856 214.3 7.2 209 12.4
2007-01-26 09:09:01 51°21.924 3°8.848 211.8 7.1 208 12.3
2007-01-26 09:09:06 51°21.915 3°8.841 209.7 7.1 204 12.2
2007-01-26 09:09:11 51°21.906 3°8.835 207 6.9 205 12.2
2007-01-26 09:09:16 51°21.897 3°8.828 206.5 6.8 206 12.2